sensor_id;sensor_type;location;lat;lon;timestamp;temperature;humidity
17726;DHT22;8983;53.156;17.960;2023-02-15T00:02:04;2.60;99.90
17726;DHT22;8983;53.156;17.960;2023-02-15T00:04:33;2.60;99.90
17726;DHT22;8983;53.156;17.960;2023-02-15T00:07:18;2.60;99.90
17726;DHT22;8983;53.156;17.960;2023-02-15T00:09:46;2.70;99.90
17726;DHT22;8983;53.156;17.960;2023-02-15T00:12:15;2.60;99.90
17726;DHT22;8983;53.156;17.960;2023-02-15T00:14:44;2.60;99.90
17726;DHT22;8983;53.156;17.960;2023-02-15T00:17:13;2.60;99.90
17726;DHT22;8983;53.156;17.960;2023-02-15T00:19:41;2.60;99.90
17726;DHT22;8983;53.156;17.960;2023-02-15T00:22:09;2.70;99.90
17726;DHT22;8983;53.156;17.960;2023-02-15T00:24:37;2.70;99.90
17726;DHT22;8983;53.156;17.960;2023-02-15T00:27:05;2.70;99.90
17726;DHT22;8983;53.156;17.960;2023-02-15T00:29:33;2.70;99.90
17726;DHT22;8983;53.156;17.960;2023-02-15T00:32:01;2.70;99.90
17726;DHT22;8983;53.156;17.960;2023-02-15T00:34:30;2.70;99.90
17726;DHT22;8983;53.156;17.960;2023-02-15T00:36:58;2.70;99.90
17726;DHT22;8983;53.156;17.960;2023-02-15T00:39:26;2.70;99.90
17726;DHT22;8983;53.156;17.960;2023-02-15T00:41:55;2.80;99.90
17726;DHT22;8983;53.156;17.960;2023-02-15T00:44:23;2.80;99.90
17726;DHT22;8983;53.156;17.960;2023-02-15T00:46:51;2.80;99.90
17726;DHT22;8983;53.156;17.960;2023-02-15T00:49:19;2.80;99.90
17726;DHT22;8983;53.156;17.960;2023-02-15T00:51:48;2.80;99.90
17726;DHT22;8983;53.156;17.960;2023-02-15T00:54:16;2.80;99.90
17726;DHT22;8983;53.156;17.960;2023-02-15T00:56:44;2.80;99.90
17726;DHT22;8983;53.156;17.960;2023-02-15T00:59:12;2.80;99.90
17726;DHT22;8983;53.156;17.960;2023-02-15T01:01:40;2.80;99.90
17726;DHT22;8983;53.156;17.960;2023-02-15T01:04:08;2.80;99.90
17726;DHT22;8983;53.156;17.960;2023-02-15T01:06:36;2.80;99.90
17726;DHT22;8983;53.156;17.960;2023-02-15T01:09:06;2.80;99.90
17726;DHT22;8983;53.156;17.960;2023-02-15T01:11:34;2.80;99.90
17726;DHT22;8983;53.156;17.960;2023-02-15T01:14:02;2.80;99.90
17726;DHT22;8983;53.156;17.960;2023-02-15T01:16:32;2.80;99.90
17726;DHT22;8983;53.156;17.960;2023-02-15T01:19:00;2.90;99.90
17726;DHT22;8983;53.156;17.960;2023-02-15T01:21:29;2.90;99.90
17726;DHT22;8983;53.156;17.960;2023-02-15T01:23:57;2.80;99.90
17726;DHT22;8983;53.156;17.960;2023-02-15T01:26:28;2.90;99.90
17726;DHT22;8983;53.156;17.960;2023-02-15T01:28:56;2.90;99.90
17726;DHT22;8983;53.156;17.960;2023-02-15T01:31:24;2.90;99.90
17726;DHT22;8983;53.156;17.960;2023-02-15T01:33:52;2.90;99.90
17726;DHT22;8983;53.156;17.960;2023-02-15T01:36:20;2.90;99.90
17726;DHT22;8983;53.156;17.960;2023-02-15T01:38:48;2.90;99.90
17726;DHT22;8983;53.156;17.960;2023-02-15T01:41:16;2.90;99.90
17726;DHT22;8983;53.156;17.960;2023-02-15T01:43:56;2.90;99.90
17726;DHT22;8983;53.156;17.960;2023-02-15T01:46:30;2.90;99.90
17726;DHT22;8983;53.156;17.960;2023-02-15T01:49:03;2.90;99.90
17726;DHT22;8983;53.156;17.960;2023-02-15T01:51:34;2.90;99.90
17726;DHT22;8983;53.156;17.960;2023-02-15T01:54:06;2.90;99.90
17726;DHT22;8983;53.156;17.960;2023-02-15T01:56:37;2.90;99.90
17726;DHT22;8983;53.156;17.960;2023-02-15T01:59:09;2.90;99.90
17726;DHT22;8983;53.156;17.960;2023-02-15T02:01:39;2.90;99.90
17726;DHT22;8983;53.156;17.960;2023-02-15T02:04:12;2.90;99.90
17726;DHT22;8983;53.156;17.960;2023-02-15T02:06:41;2.90;99.90
17726;DHT22;8983;53.156;17.960;2023-02-15T02:09:09;2.90;99.90
17726;DHT22;8983;53.156;17.960;2023-02-15T02:11:39;2.90;99.90
17726;DHT22;8983;53.156;17.960;2023-02-15T02:14:09;2.90;99.90
17726;DHT22;8983;53.156;17.960;2023-02-15T02:16:42;2.90;99.90
17726;DHT22;8983;53.156;17.960;2023-02-15T02:19:52;2.90;99.90
17726;DHT22;8983;53.156;17.960;2023-02-15T02:22:39;2.90;99.90
17726;DHT22;8983;53.156;17.960;2023-02-15T02:25:35;2.80;99.90
17726;DHT22;8983;53.156;17.960;2023-02-15T02:28:23;2.80;99.90
17726;DHT22;8983;53.156;17.960;2023-02-15T02:31:14;2.80;99.90
17726;DHT22;8983;53.156;17.960;2023-02-15T02:33:56;2.70;99.90
17726;DHT22;8983;53.156;17.960;2023-02-15T02:36:34;2.70;99.90
17726;DHT22;8983;53.156;17.960;2023-02-15T02:39:19;2.70;99.90
17726;DHT22;8983;53.156;17.960;2023-02-15T02:41:56;2.70;99.90
17726;DHT22;8983;53.156;17.960;2023-02-15T02:44:31;2.60;99.90
17726;DHT22;8983;53.156;17.960;2023-02-15T02:47:05;2.60;99.90
17726;DHT22;8983;53.156;17.960;2023-02-15T02:49:39;2.60;99.90
17726;DHT22;8983;53.156;17.960;2023-02-15T02:52:37;2.70;99.90
17726;DHT22;8983;53.156;17.960;2023-02-15T02:55:08;2.60;99.90
17726;DHT22;8983;53.156;17.960;2023-02-15T02:57:40;2.60;99.90
17726;DHT22;8983;53.156;17.960;2023-02-15T03:00:12;2.60;99.90
17726;DHT22;8983;53.156;17.960;2023-02-15T03:02:44;2.60;99.90
17726;DHT22;8983;53.156;17.960;2023-02-15T03:05:18;2.50;99.90
17726;DHT22;8983;53.156;17.960;2023-02-15T03:07:50;2.50;99.90
17726;DHT22;8983;53.156;17.960;2023-02-15T03:10:22;2.50;99.90
17726;DHT22;8983;53.156;17.960;2023-02-15T03:12:51;2.50;99.90
17726;DHT22;8983;53.156;17.960;2023-02-15T03:15:22;2.40;99.90
17726;DHT22;8983;53.156;17.960;2023-02-15T03:17:53;2.40;99.90
17726;DHT22;8983;53.156;17.960;2023-02-15T03:20:27;2.40;99.90
17726;DHT22;8983;53.156;17.960;2023-02-15T03:23:00;2.40;99.90
17726;DHT22;8983;53.156;17.960;2023-02-15T03:25:32;2.40;99.90
17726;DHT22;8983;53.156;17.960;2023-02-15T03:28:03;2.50;99.90
17726;DHT22;8983;53.156;17.960;2023-02-15T03:30:34;2.50;99.90
17726;DHT22;8983;53.156;17.960;2023-02-15T03:33:04;2.50;99.90
17726;DHT22;8983;53.156;17.960;2023-02-15T03:35:41;2.50;99.90
17726;DHT22;8983;53.156;17.960;2023-02-15T03:38:14;2.50;99.90
17726;DHT22;8983;53.156;17.960;2023-02-15T03:40:45;2.50;99.90
17726;DHT22;8983;53.156;17.960;2023-02-15T03:43:37;2.50;99.90
17726;DHT22;8983;53.156;17.960;2023-02-15T03:46:12;2.60;99.90
17726;DHT22;8983;53.156;17.960;2023-02-15T03:48:43;2.60;99.90
17726;DHT22;8983;53.156;17.960;2023-02-15T03:51:17;2.60;99.90
17726;DHT22;8983;53.156;17.960;2023-02-15T03:54:04;2.60;99.90
17726;DHT22;8983;53.156;17.960;2023-02-15T03:56:34;2.60;99.90
17726;DHT22;8983;53.156;17.960;2023-02-15T03:59:03;2.60;99.90
17726;DHT22;8983;53.156;17.960;2023-02-15T04:01:58;2.60;99.90
17726;DHT22;8983;53.156;17.960;2023-02-15T04:04:33;2.60;99.90
17726;DHT22;8983;53.156;17.960;2023-02-15T04:07:05;2.60;99.90
17726;DHT22;8983;53.156;17.960;2023-02-15T04:09:33;2.60;99.90
17726;DHT22;8983;53.156;17.960;2023-02-15T04:12:20;2.70;99.90
17726;DHT22;8983;53.156;17.960;2023-02-15T04:14:48;2.70;99.90
17726;DHT22;8983;53.156;17.960;2023-02-15T04:17:33;2.70;99.90
17726;DHT22;8983;53.156;17.960;2023-02-15T04:20:01;2.70;99.90
17726;DHT22;8983;53.156;17.960;2023-02-15T04:22:48;2.70;99.90
17726;DHT22;8983;53.156;17.960;2023-02-15T04:25:33;2.70;99.90
17726;DHT22;8983;53.156;17.960;2023-02-15T04:28:01;2.70;99.90
17726;DHT22;8983;53.156;17.960;2023-02-15T04:30:29;2.60;99.90
17726;DHT22;8983;53.156;17.960;2023-02-15T04:32:57;2.70;99.90
17726;DHT22;8983;53.156;17.960;2023-02-15T04:35:25;2.70;99.90
17726;DHT22;8983;53.156;17.960;2023-02-15T04:37:55;2.70;99.90
17726;DHT22;8983;53.156;17.960;2023-02-15T04:40:23;2.70;99.90
17726;DHT22;8983;53.156;17.960;2023-02-15T04:42:51;2.70;99.90
17726;DHT22;8983;53.156;17.960;2023-02-15T04:45:19;2.70;99.90
17726;DHT22;8983;53.156;17.960;2023-02-15T04:47:47;2.70;99.90
17726;DHT22;8983;53.156;17.960;2023-02-15T04:50:16;2.70;99.90
17726;DHT22;8983;53.156;17.960;2023-02-15T04:52:44;2.70;99.90
17726;DHT22;8983;53.156;17.960;2023-02-15T04:55:13;2.60;99.90
17726;DHT22;8983;53.156;17.960;2023-02-15T04:57:41;2.60;99.90
17726;DHT22;8983;53.156;17.960;2023-02-15T05:00:10;2.60;99.90
17726;DHT22;8983;53.156;17.960;2023-02-15T05:02:38;2.60;99.90
17726;DHT22;8983;53.156;17.960;2023-02-15T05:05:07;2.60;99.90
17726;DHT22;8983;53.156;17.960;2023-02-15T05:07:36;2.60;99.90
17726;DHT22;8983;53.156;17.960;2023-02-15T05:10:05;2.60;99.90
17726;DHT22;8983;53.156;17.960;2023-02-15T05:12:34;2.60;99.90
17726;DHT22;8983;53.156;17.960;2023-02-15T05:15:02;2.60;99.90
17726;DHT22;8983;53.156;17.960;2023-02-15T05:17:31;2.60;99.90
17726;DHT22;8983;53.156;17.960;2023-02-15T05:20:00;2.60;99.90
17726;DHT22;8983;53.156;17.960;2023-02-15T05:22:28;2.60;99.90
17726;DHT22;8983;53.156;17.960;2023-02-15T05:24:56;2.60;99.90
17726;DHT22;8983;53.156;17.960;2023-02-15T05:27:51;2.50;99.90
17726;DHT22;8983;53.156;17.960;2023-02-15T05:30:36;2.50;99.90
17726;DHT22;8983;53.156;17.960;2023-02-15T05:33:06;2.50;99.90
17726;DHT22;8983;53.156;17.960;2023-02-15T05:35:35;2.50;99.90
17726;DHT22;8983;53.156;17.960;2023-02-15T05:38:02;3.80;99.90
17726;DHT22;8983;53.156;17.960;2023-02-15T05:40:30;2.60;99.90
17726;DHT22;8983;53.156;17.960;2023-02-15T05:43:00;2.60;99.90
17726;DHT22;8983;53.156;17.960;2023-02-15T05:45:28;2.60;99.90
17726;DHT22;8983;53.156;17.960;2023-02-15T05:47:56;2.60;99.90
17726;DHT22;8983;53.156;17.960;2023-02-15T05:50:26;2.60;99.90
17726;DHT22;8983;53.156;17.960;2023-02-15T05:52:54;2.60;99.90
17726;DHT22;8983;53.156;17.960;2023-02-15T05:55:22;2.60;99.90
17726;DHT22;8983;53.156;17.960;2023-02-15T05:57:50;2.70;99.90
17726;DHT22;8983;53.156;17.960;2023-02-15T06:00:20;2.70;99.90
17726;DHT22;8983;53.156;17.960;2023-02-15T06:02:47;2.60;99.90
17726;DHT22;8983;53.156;17.960;2023-02-15T06:05:16;2.70;99.90
17726;DHT22;8983;53.156;17.960;2023-02-15T06:07:44;2.70;99.90
17726;DHT22;8983;53.156;17.960;2023-02-15T06:10:12;2.70;99.90
17726;DHT22;8983;53.156;17.960;2023-02-15T06:12:40;2.70;99.90
17726;DHT22;8983;53.156;17.960;2023-02-15T06:15:08;2.70;99.90
17726;DHT22;8983;53.156;17.960;2023-02-15T06:17:38;2.70;99.90
17726;DHT22;8983;53.156;17.960;2023-02-15T06:20:09;2.70;99.90
17726;DHT22;8983;53.156;17.960;2023-02-15T06:22:37;2.70;99.90
17726;DHT22;8983;53.156;17.960;2023-02-15T06:25:06;2.70;99.90
17726;DHT22;8983;53.156;17.960;2023-02-15T06:27:36;2.70;99.90
17726;DHT22;8983;53.156;17.960;2023-02-15T06:30:05;2.70;99.90
17726;DHT22;8983;53.156;17.960;2023-02-15T06:32:33;2.70;99.90
17726;DHT22;8983;53.156;17.960;2023-02-15T06:35:03;2.70;99.90
17726;DHT22;8983;53.156;17.960;2023-02-15T06:37:31;2.70;99.90
17726;DHT22;8983;53.156;17.960;2023-02-15T06:39:59;2.70;99.90
17726;DHT22;8983;53.156;17.960;2023-02-15T06:42:29;2.70;99.90
17726;DHT22;8983;53.156;17.960;2023-02-15T06:44:57;2.70;99.90
17726;DHT22;8983;53.156;17.960;2023-02-15T06:47:26;2.70;99.90
17726;DHT22;8983;53.156;17.960;2023-02-15T06:49:54;2.70;99.90
17726;DHT22;8983;53.156;17.960;2023-02-15T06:52:24;2.70;99.90
17726;DHT22;8983;53.156;17.960;2023-02-15T06:54:52;2.70;99.90
17726;DHT22;8983;53.156;17.960;2023-02-15T06:57:20;2.70;99.90
17726;DHT22;8983;53.156;17.960;2023-02-15T06:59:48;2.60;99.90
17726;DHT22;8983;53.156;17.960;2023-02-15T07:02:16;2.60;99.90
17726;DHT22;8983;53.156;17.960;2023-02-15T07:04:44;2.70;99.90
17726;DHT22;8983;53.156;17.960;2023-02-15T07:07:12;2.70;99.90
17726;DHT22;8983;53.156;17.960;2023-02-15T07:09:41;2.70;99.90
17726;DHT22;8983;53.156;17.960;2023-02-15T07:12:09;2.60;99.90
17726;DHT22;8983;53.156;17.960;2023-02-15T07:14:55;2.70;99.90
17726;DHT22;8983;53.156;17.960;2023-02-15T07:17:24;2.60;99.90
17726;DHT22;8983;53.156;17.960;2023-02-15T07:20:03;2.60;99.90
17726;DHT22;8983;53.156;17.960;2023-02-15T07:22:31;2.50;99.90
17726;DHT22;8983;53.156;17.960;2023-02-15T07:25:02;2.50;99.90
17726;DHT22;8983;53.156;17.960;2023-02-15T07:27:31;2.50;99.90
17726;DHT22;8983;53.156;17.960;2023-02-15T07:29:59;2.50;99.90
17726;DHT22;8983;53.156;17.960;2023-02-15T07:32:28;2.50;99.90
17726;DHT22;8983;53.156;17.960;2023-02-15T07:34:57;2.40;99.90
17726;DHT22;8983;53.156;17.960;2023-02-15T07:37:26;2.50;99.90
17726;DHT22;8983;53.156;17.960;2023-02-15T07:39:54;2.50;99.90
17726;DHT22;8983;53.156;17.960;2023-02-15T07:42:23;2.50;99.90
17726;DHT22;8983;53.156;17.960;2023-02-15T07:44:51;2.80;99.90
17726;DHT22;8983;53.156;17.960;2023-02-15T07:47:20;2.60;99.90
17726;DHT22;8983;53.156;17.960;2023-02-15T07:49:47;2.60;99.90
17726;DHT22;8983;53.156;17.960;2023-02-15T07:52:16;2.60;99.90
17726;DHT22;8983;53.156;17.960;2023-02-15T07:54:43;2.60;99.90
17726;DHT22;8983;53.156;17.960;2023-02-15T07:57:11;2.60;99.90
17726;DHT22;8983;53.156;17.960;2023-02-15T07:59:41;2.60;99.90
17726;DHT22;8983;53.156;17.960;2023-02-15T08:02:10;2.60;99.90
17726;DHT22;8983;53.156;17.960;2023-02-15T08:04:38;2.70;99.90
17726;DHT22;8983;53.156;17.960;2023-02-15T08:07:06;2.70;99.90
17726;DHT22;8983;53.156;17.960;2023-02-15T08:09:35;2.70;99.90
17726;DHT22;8983;53.156;17.960;2023-02-15T08:12:04;2.70;99.90
17726;DHT22;8983;53.156;17.960;2023-02-15T08:14:32;2.70;99.90
17726;DHT22;8983;53.156;17.960;2023-02-15T08:17:01;2.70;99.90
17726;DHT22;8983;53.156;17.960;2023-02-15T08:19:32;2.80;99.90
17726;DHT22;8983;53.156;17.960;2023-02-15T08:22:02;2.80;99.90
17726;DHT22;8983;53.156;17.960;2023-02-15T08:24:32;2.80;99.90
17726;DHT22;8983;53.156;17.960;2023-02-15T08:27:01;2.80;99.90
17726;DHT22;8983;53.156;17.960;2023-02-15T08:29:33;2.80;99.90
17726;DHT22;8983;53.156;17.960;2023-02-15T08:32:04;2.90;99.90
17726;DHT22;8983;53.156;17.960;2023-02-15T08:34:34;2.90;99.90
17726;DHT22;8983;53.156;17.960;2023-02-15T08:37:03;2.90;99.90
17726;DHT22;8983;53.156;17.960;2023-02-15T08:39:32;2.90;99.90
17726;DHT22;8983;53.156;17.960;2023-02-15T08:42:00;3.00;99.90
17726;DHT22;8983;53.156;17.960;2023-02-15T08:44:28;3.00;99.90
17726;DHT22;8983;53.156;17.960;2023-02-15T08:46:56;3.00;99.90
17726;DHT22;8983;53.156;17.960;2023-02-15T08:49:30;3.00;99.90
17726;DHT22;8983;53.156;17.960;2023-02-15T08:51:59;3.10;99.90
17726;DHT22;8983;53.156;17.960;2023-02-15T08:54:27;3.00;99.90
17726;DHT22;8983;53.156;17.960;2023-02-15T08:56:55;3.10;99.90
17726;DHT22;8983;53.156;17.960;2023-02-15T08:59:23;3.10;99.90
17726;DHT22;8983;53.156;17.960;2023-02-15T09:01:54;3.10;99.90
17726;DHT22;8983;53.156;17.960;2023-02-15T09:04:22;3.10;99.90
17726;DHT22;8983;53.156;17.960;2023-02-15T09:06:51;3.20;99.90
17726;DHT22;8983;53.156;17.960;2023-02-15T09:09:20;3.30;99.90
17726;DHT22;8983;53.156;17.960;2023-02-15T09:11:49;3.40;99.90
17726;DHT22;8983;53.156;17.960;2023-02-15T09:14:24;3.40;99.90
17726;DHT22;8983;53.156;17.960;2023-02-15T09:16:53;3.50;99.90
17726;DHT22;8983;53.156;17.960;2023-02-15T09:19:23;3.60;99.90
17726;DHT22;8983;53.156;17.960;2023-02-15T09:21:53;3.60;99.90
17726;DHT22;8983;53.156;17.960;2023-02-15T09:24:21;3.60;99.90
17726;DHT22;8983;53.156;17.960;2023-02-15T09:26:49;3.70;99.90
17726;DHT22;8983;53.156;17.960;2023-02-15T09:29:18;3.70;99.90
17726;DHT22;8983;53.156;17.960;2023-02-15T09:31:48;3.80;99.90
17726;DHT22;8983;53.156;17.960;2023-02-15T09:34:18;3.80;99.90
17726;DHT22;8983;53.156;17.960;2023-02-15T09:36:47;3.80;99.90
17726;DHT22;8983;53.156;17.960;2023-02-15T09:39:18;3.90;99.90
17726;DHT22;8983;53.156;17.960;2023-02-15T09:48:16;4.00;99.90
17726;DHT22;8983;53.156;17.960;2023-02-15T09:50:57;4.00;99.90
17726;DHT22;8983;53.156;17.960;2023-02-15T09:53:59;4.10;99.90
17726;DHT22;8983;53.156;17.960;2023-02-15T09:56:37;4.20;99.90
17726;DHT22;8983;53.156;17.960;2023-02-15T09:59:12;4.20;99.90
17726;DHT22;8983;53.156;17.960;2023-02-15T10:01:49;4.20;99.90
17726;DHT22;8983;53.156;17.960;2023-02-15T10:04:32;4.30;99.90
17726;DHT22;8983;53.156;17.960;2023-02-15T10:07:12;4.40;99.90
17726;DHT22;8983;53.156;17.960;2023-02-15T10:09:55;4.30;99.90
17726;DHT22;8983;53.156;17.960;2023-02-15T10:15:29;4.20;99.90
17726;DHT22;8983;53.156;17.960;2023-02-15T10:18:11;4.20;99.90
17726;DHT22;8983;53.156;17.960;2023-02-15T10:20:49;4.20;99.90
17726;DHT22;8983;53.156;17.960;2023-02-15T10:23:32;4.20;99.90
17726;DHT22;8983;53.156;17.960;2023-02-15T10:26:11;4.10;99.90
17726;DHT22;8983;53.156;17.960;2023-02-15T10:28:48;4.10;99.90
17726;DHT22;8983;53.156;17.960;2023-02-15T10:31:23;4.10;99.90
17726;DHT22;8983;53.156;17.960;2023-02-15T10:34:11;4.10;99.90
17726;DHT22;8983;53.156;17.960;2023-02-15T10:36:53;4.10;99.90
17726;DHT22;8983;53.156;17.960;2023-02-15T10:39:28;4.10;99.90
17726;DHT22;8983;53.156;17.960;2023-02-15T10:42:09;4.20;99.90
17726;DHT22;8983;53.156;17.960;2023-02-15T10:44:48;4.20;99.90
17726;DHT22;8983;53.156;17.960;2023-02-15T10:47:48;4.20;99.90
17726;DHT22;8983;53.156;17.960;2023-02-15T10:50:26;4.30;99.90
17726;DHT22;8983;53.156;17.960;2023-02-15T10:53:12;4.30;99.90
17726;DHT22;8983;53.156;17.960;2023-02-15T10:55:52;4.30;99.90
17726;DHT22;8983;53.156;17.960;2023-02-15T10:58:31;4.30;99.90
17726;DHT22;8983;53.156;17.960;2023-02-15T11:01:10;4.30;99.90
17726;DHT22;8983;53.156;17.960;2023-02-15T11:03:51;4.30;99.90
17726;DHT22;8983;53.156;17.960;2023-02-15T11:06:27;4.30;99.90
17726;DHT22;8983;53.156;17.960;2023-02-15T11:08:59;4.30;99.90
17726;DHT22;8983;53.156;17.960;2023-02-15T11:11:29;4.30;99.90
17726;DHT22;8983;53.156;17.960;2023-02-15T11:13:59;4.30;99.90
17726;DHT22;8983;53.156;17.960;2023-02-15T11:16:33;4.20;99.90
17726;DHT22;8983;53.156;17.960;2023-02-15T11:19:05;4.40;99.90
17726;DHT22;8983;53.156;17.960;2023-02-15T11:21:38;4.40;99.90
17726;DHT22;8983;53.156;17.960;2023-02-15T11:24:10;4.40;99.90
17726;DHT22;8983;53.156;17.960;2023-02-15T11:26:42;4.40;99.90
17726;DHT22;8983;53.156;17.960;2023-02-15T11:29:15;4.40;99.90
17726;DHT22;8983;53.156;17.960;2023-02-15T11:31:51;4.40;99.90
17726;DHT22;8983;53.156;17.960;2023-02-15T11:34:25;4.50;99.90
17726;DHT22;8983;53.156;17.960;2023-02-15T11:36:55;4.50;99.90
17726;DHT22;8983;53.156;17.960;2023-02-15T11:39:26;4.60;99.90
17726;DHT22;8983;53.156;17.960;2023-02-15T11:42:01;4.70;99.90
17726;DHT22;8983;53.156;17.960;2023-02-15T11:44:32;4.80;99.90
17726;DHT22;8983;53.156;17.960;2023-02-15T11:47:03;4.90;99.90
17726;DHT22;8983;53.156;17.960;2023-02-15T11:49:36;5.00;99.90
17726;DHT22;8983;53.156;17.960;2023-02-15T11:52:06;5.00;99.90
17726;DHT22;8983;53.156;17.960;2023-02-15T11:54:36;5.10;99.90
17726;DHT22;8983;53.156;17.960;2023-02-15T11:57:23;5.20;99.90
17726;DHT22;8983;53.156;17.960;2023-02-15T12:00:00;5.30;99.90
17726;DHT22;8983;53.156;17.960;2023-02-15T12:02:33;5.30;99.90
17726;DHT22;8983;53.156;17.960;2023-02-15T12:05:07;5.30;99.90
17726;DHT22;8983;53.156;17.960;2023-02-15T12:07:40;5.30;99.90
17726;DHT22;8983;53.156;17.960;2023-02-15T12:10:17;5.30;99.90
17726;DHT22;8983;53.156;17.960;2023-02-15T12:12:47;5.30;99.90
17726;DHT22;8983;53.156;17.960;2023-02-15T12:15:29;5.30;99.90
17726;DHT22;8983;53.156;17.960;2023-02-15T12:17:59;5.40;99.90
17726;DHT22;8983;53.156;17.960;2023-02-15T12:20:30;5.40;99.90
17726;DHT22;8983;53.156;17.960;2023-02-15T12:23:00;5.30;99.90
17726;DHT22;8983;53.156;17.960;2023-02-15T12:25:35;5.30;99.90
17726;DHT22;8983;53.156;17.960;2023-02-15T12:28:05;5.30;99.90
17726;DHT22;8983;53.156;17.960;2023-02-15T12:30:43;5.30;99.90
17726;DHT22;8983;53.156;17.960;2023-02-15T12:33:21;5.30;99.90
17726;DHT22;8983;53.156;17.960;2023-02-15T12:35:57;5.30;99.90
17726;DHT22;8983;53.156;17.960;2023-02-15T12:38:28;5.50;99.90
17726;DHT22;8983;53.156;17.960;2023-02-15T12:40:58;5.80;99.90
17726;DHT22;8983;53.156;17.960;2023-02-15T12:43:31;5.80;99.90
17726;DHT22;8983;53.156;17.960;2023-02-15T12:46:21;5.80;99.90
17726;DHT22;8983;53.156;17.960;2023-02-15T12:51:45;5.80;99.90
17726;DHT22;8983;53.156;17.960;2023-02-15T12:54:33;5.80;99.90
17726;DHT22;8983;53.156;17.960;2023-02-15T12:57:23;5.80;99.90
17726;DHT22;8983;53.156;17.960;2023-02-15T12:59:54;5.70;99.90
17726;DHT22;8983;53.156;17.960;2023-02-15T13:02:29;5.60;99.90
17726;DHT22;8983;53.156;17.960;2023-02-15T13:05:07;5.50;99.90
17726;DHT22;8983;53.156;17.960;2023-02-15T13:07:45;5.50;99.90
17726;DHT22;8983;53.156;17.960;2023-02-15T13:10:22;5.40;99.90
17726;DHT22;8983;53.156;17.960;2023-02-15T13:12:52;5.40;99.90
17726;DHT22;8983;53.156;17.960;2023-02-15T13:15:30;5.40;99.90
17726;DHT22;8983;53.156;17.960;2023-02-15T13:18:01;5.50;99.90
17726;DHT22;8983;53.156;17.960;2023-02-15T13:20:30;5.70;99.90
17726;DHT22;8983;53.156;17.960;2023-02-15T13:23:02;5.90;99.90
17726;DHT22;8983;53.156;17.960;2023-02-15T13:25:38;6.10;99.90
17726;DHT22;8983;53.156;17.960;2023-02-15T13:28:13;6.30;99.90
17726;DHT22;8983;53.156;17.960;2023-02-15T13:30:44;6.50;99.90
17726;DHT22;8983;53.156;17.960;2023-02-15T13:33:17;6.60;99.90
17726;DHT22;8983;53.156;17.960;2023-02-15T13:35:53;6.60;99.90
17726;DHT22;8983;53.156;17.960;2023-02-15T13:38:45;6.70;99.90
17726;DHT22;8983;53.156;17.960;2023-02-15T13:41:17;6.50;99.90
17726;DHT22;8983;53.156;17.960;2023-02-15T13:43:55;6.40;99.90
17726;DHT22;8983;53.156;17.960;2023-02-15T13:46:45;6.30;99.90
17726;DHT22;8983;53.156;17.960;2023-02-15T13:49:21;6.10;99.90
17726;DHT22;8983;53.156;17.960;2023-02-15T13:51:57;5.90;99.90
17726;DHT22;8983;53.156;17.960;2023-02-15T13:54:36;5.90;99.90
17726;DHT22;8983;53.156;17.960;2023-02-15T13:57:24;5.80;99.90
17726;DHT22;8983;53.156;17.960;2023-02-15T14:00:03;5.70;99.90
17726;DHT22;8983;53.156;17.960;2023-02-15T14:02:43;5.60;99.90
17726;DHT22;8983;53.156;17.960;2023-02-15T14:05:29;5.50;99.90
17726;DHT22;8983;53.156;17.960;2023-02-15T14:08:11;5.50;99.90
17726;DHT22;8983;53.156;17.960;2023-02-15T14:10:46;5.40;99.90
17726;DHT22;8983;53.156;17.960;2023-02-15T14:13:44;5.30;99.90
17726;DHT22;8983;53.156;17.960;2023-02-15T14:16:20;5.40;99.90
17726;DHT22;8983;53.156;17.960;2023-02-15T14:18:56;5.40;99.90
17726;DHT22;8983;53.156;17.960;2023-02-15T14:21:31;5.40;99.90
17726;DHT22;8983;53.156;17.960;2023-02-15T14:24:11;5.30;99.90
17726;DHT22;8983;53.156;17.960;2023-02-15T14:26:47;5.30;99.90
17726;DHT22;8983;53.156;17.960;2023-02-15T14:29:26;5.30;99.90
17726;DHT22;8983;53.156;17.960;2023-02-15T14:31:59;5.20;99.90
17726;DHT22;8983;53.156;17.960;2023-02-15T14:34:39;5.20;99.90
17726;DHT22;8983;53.156;17.960;2023-02-15T14:37:11;5.20;99.90
17726;DHT22;8983;53.156;17.960;2023-02-15T14:39:47;5.20;99.90
17726;DHT22;8983;53.156;17.960;2023-02-15T14:42:40;5.10;99.90
17726;DHT22;8983;53.156;17.960;2023-02-15T14:45:17;5.00;99.90
17726;DHT22;8983;53.156;17.960;2023-02-15T14:47:53;5.00;99.90
17726;DHT22;8983;53.156;17.960;2023-02-15T14:50:41;4.90;99.90
17726;DHT22;8983;53.156;17.960;2023-02-15T14:53:35;4.90;99.90
17726;DHT22;8983;53.156;17.960;2023-02-15T14:56:12;4.80;99.90
17726;DHT22;8983;53.156;17.960;2023-02-15T14:58:58;4.80;99.90
17726;DHT22;8983;53.156;17.960;2023-02-15T15:01:27;4.70;99.90
17726;DHT22;8983;53.156;17.960;2023-02-15T15:03:59;4.70;99.90
17726;DHT22;8983;53.156;17.960;2023-02-15T15:06:29;4.70;99.90
17726;DHT22;8983;53.156;17.960;2023-02-15T15:09:00;4.60;99.90
17726;DHT22;8983;53.156;17.960;2023-02-15T15:11:39;4.60;99.90
17726;DHT22;8983;53.156;17.960;2023-02-15T15:14:38;4.50;99.90
17726;DHT22;8983;53.156;17.960;2023-02-15T15:17:10;4.50;99.90
17726;DHT22;8983;53.156;17.960;2023-02-15T15:20:04;4.50;99.90
17726;DHT22;8983;53.156;17.960;2023-02-15T15:22:35;4.50;99.90
17726;DHT22;8983;53.156;17.960;2023-02-15T15:25:08;4.40;99.90
17726;DHT22;8983;53.156;17.960;2023-02-15T15:27:52;4.40;99.90
17726;DHT22;8983;53.156;17.960;2023-02-15T15:30:50;4.40;99.90
17726;DHT22;8983;53.156;17.960;2023-02-15T15:33:40;4.40;99.90
17726;DHT22;8983;53.156;17.960;2023-02-15T15:36:35;4.40;99.90
17726;DHT22;8983;53.156;17.960;2023-02-15T15:39:27;4.40;99.90
17726;DHT22;8983;53.156;17.960;2023-02-15T15:42:12;4.40;99.90
17726;DHT22;8983;53.156;17.960;2023-02-15T15:48:23;4.40;99.90
17726;DHT22;8983;53.156;17.960;2023-02-15T15:50:57;4.30;99.90
17726;DHT22;8983;53.156;17.960;2023-02-15T15:53:29;4.40;99.90
17726;DHT22;8983;53.156;17.960;2023-02-15T15:56:02;4.30;99.90
17726;DHT22;8983;53.156;17.960;2023-02-15T15:58:33;4.30;99.90
17726;DHT22;8983;53.156;17.960;2023-02-15T16:01:05;4.30;99.90
17726;DHT22;8983;53.156;17.960;2023-02-15T16:03:36;4.30;99.90
17726;DHT22;8983;53.156;17.960;2023-02-15T16:06:04;4.20;99.90
17726;DHT22;8983;53.156;17.960;2023-02-15T16:08:34;4.20;99.90
17726;DHT22;8983;53.156;17.960;2023-02-15T16:11:10;4.20;99.90
17726;DHT22;8983;53.156;17.960;2023-02-15T16:13:39;4.20;99.90
17726;DHT22;8983;53.156;17.960;2023-02-15T16:16:08;4.20;99.90
17726;DHT22;8983;53.156;17.960;2023-02-15T16:18:37;4.10;99.90
17726;DHT22;8983;53.156;17.960;2023-02-15T16:21:14;4.00;99.90
17726;DHT22;8983;53.156;17.960;2023-02-15T16:24:13;4.00;99.90
17726;DHT22;8983;53.156;17.960;2023-02-15T16:27:10;3.90;99.90
17726;DHT22;8983;53.156;17.960;2023-02-15T16:29:39;3.90;99.90
17726;DHT22;8983;53.156;17.960;2023-02-15T16:32:16;3.80;99.90
17726;DHT22;8983;53.156;17.960;2023-02-15T16:34:57;3.80;99.90
17726;DHT22;8983;53.156;17.960;2023-02-15T16:37:27;3.80;99.90
17726;DHT22;8983;53.156;17.960;2023-02-15T16:39:55;3.70;99.90
17726;DHT22;8983;53.156;17.960;2023-02-15T16:42:24;3.70;99.90